Time;durP1;ratioP1;P1;durP2;ratioP2;P2;SDS_P1;SDS_P2;PMS_P1;PMS_P2;Temp;Humidity;BMP_temperature;BMP_pressure;BME280_temperature;BME280_humidity;BME280_pressure;Samples;Min_cycle;Max_cycle;Signal;HPM_P1;HPM_P2
2021/05/11 00:00:59;;;;;;;9.75;8.75;;;18.50;52.60;;;;;;6200565;23;20151;-80
2021/05/11 00:03:25;;;;;;;10.77;9.63;;;18.50;52.60;;;;;;6174850;23;20205;-80
2021/05/11 00:05:52;;;;;;;10.30;9.00;;;18.50;52.60;;;;;;6173576;23;20151;-80
2021/05/11 00:08:26;;;;;;;10.20;9.20;;;18.50;52.60;;;;;;6173579;23;20131;-80
2021/05/11 00:11:01;;;;;;;9.98;9.00;;;18.50;52.60;;;;;;6174140;23;20138;-80
2021/05/11 00:13:29;;;;;;;10.20;9.07;;;18.50;52.70;;;;;;6149922;23;20147;-80
2021/05/11 00:15:56;;;;;;;9.55;8.60;;;18.50;52.70;;;;;;6173653;23;20241;-81
2021/05/11 00:18:22;;;;;;;10.60;9.55;;;18.50;52.60;;;;;;6174364;23;20158;-80
2021/05/11 00:20:50;;;;;;;10.88;9.77;;;18.50;52.60;;;;;;6149461;23;20143;-80
2021/05/11 00:23:17;;;;;;;10.20;9.15;;;18.50;52.70;;;;;;6149643;23;20143;-80
2021/05/11 00:25:51;;;;;;;10.57;9.48;;;18.50;52.70;;;;;;6174586;23;20139;-80
2021/05/11 00:28:18;;;;;;;10.27;9.27;;;18.50;52.60;;;;;;6173840;23;20146;-80
2021/05/11 00:30:44;;;;;;;10.23;9.23;;;18.50;52.60;;;;;;6173949;23;20285;-80
2021/05/11 00:33:10;;;;;;;10.60;9.50;;;18.50;52.60;;;;;;6150028;23;20147;-80
2021/05/11 00:35:37;;;;;;;10.80;9.50;;;18.50;52.60;;;;;;6151335;23;20165;-80
2021/05/11 00:38:02;;;;;;;10.70;9.55;;;18.50;52.70;;;;;;6202978;23;20127;-80
2021/05/11 00:40:29;;;;;;;10.07;9.15;;;18.50;52.70;;;;;;6151636;23;20131;-80
2021/05/11 00:43:04;;;;;;;10.52;9.52;;;18.50;52.70;;;;;;6175906;23;20178;-80
2021/05/11 00:45:32;;;;;;;10.23;9.23;;;18.50;52.70;;;;;;6175859;23;20478;-80
2021/05/11 00:48:06;;;;;;;10.20;9.18;;;18.50;52.70;;;;;;6176038;23;20131;-80
2021/05/11 00:50:34;;;;;;;10.52;9.07;;;18.40;52.70;;;;;;6176761;23;20165;-80
2021/05/11 00:53:00;;;;;;;10.85;9.27;;;18.40;52.70;;;;;;6151655;23;20150;-80
2021/05/11 00:55:30;;;;;;;10.65;9.55;;;18.40;52.80;;;;;;6151927;23;20153;-80
2021/05/11 00:57:56;;;;;;;10.80;9.70;;;18.40;52.80;;;;;;6175809;23;20161;-80
2021/05/11 01:00:23;;;;;;;11.02;9.93;;;18.40;52.80;;;;;;6127472;23;20170;-80
2021/05/11 01:02:50;;;;;;;11.45;9.82;;;18.50;52.90;;;;;;6150631;23;20179;-80
2021/05/11 01:05:16;;;;;;;10.20;9.20;;;18.50;52.80;;;;;;6176542;23;20127;-80
2021/05/11 01:07:50;;;;;;;10.80;9.77;;;18.50;52.70;;;;;;6151442;23;20177;-80
2021/05/11 01:10:25;;;;;;;10.30;9.23;;;18.40;52.80;;;;;;6150960;23;20217;-80
2021/05/11 01:12:51;;;;;;;10.40;9.40;;;18.40;52.80;;;;;;6151234;23;20153;-80
2021/05/11 01:15:26;;;;;;;10.38;9.38;;;18.40;52.80;;;;;;6175732;23;20135;-80
2021/05/11 01:18:01;;;;;;;11.05;9.95;;;18.40;52.80;;;;;;6151828;23;20142;-80
2021/05/11 01:20:34;;;;;;;10.60;9.60;;;18.40;52.80;;;;;;6176881;23;20203;-80
2021/05/11 01:25:50;;;;;;;10.68;9.57;;;18.40;52.90;;;;;;6179984;23;20142;-80
2021/05/11 01:31:38;;;;;;;10.88;9.77;;;18.40;52.90;;;;;;6110534;23;20196;-80
2021/05/11 01:47:51;;;;;;;10.43;9.38;;;18.40;52.80;;;;;;6109922;23;20157;-81
2021/05/11 01:55:27;;;;;;;10.98;9.57;;;18.40;53.00;;;;;;6109872;23;20152;-80
2021/05/11 02:23:13;;;;;;;11.88;10.32;;;18.40;53.20;;;;;;6110633;23;20220;-80
2021/05/11 02:25:40;;;;;;;11.07;9.95;;;18.30;53.10;;;;;;6062009;23;20189;-80
2021/05/11 02:28:07;;;;;;;10.95;9.75;;;18.40;53.10;;;;;;6062387;23;20143;-80
2021/05/11 02:30:33;;;;;;;10.73;9.63;;;18.40;53.20;;;;;;6086118;23;20220;-80
2021/05/11 02:32:59;;;;;;;12.45;10.35;;;18.40;53.20;;;;;;6061705;23;20220;-80
2021/05/11 02:35:34;;;;;;;11.25;10.07;;;18.30;53.10;;;;;;6086335;23;20149;-80
2021/05/11 02:38:00;;;;;;;10.98;9.88;;;18.30;53.10;;;;;;6127957;23;20147;-80
2021/05/11 02:40:27;;;;;;;11.35;10.18;;;18.30;53.10;;;;;;6120333;23;20627;-80
2021/05/11 02:43:08;;;;;;;10.93;9.77;;;18.30;53.20;;;;;;6145349;23;20191;-80
2021/05/11 02:45:35;;;;;;;11.70;10.50;;;18.30;53.20;;;;;;6124132;23;20194;-80
2021/05/11 02:48:03;;;;;;;11.95;9.75;;;18.30;53.30;;;;;;6120867;23;20148;-80
2021/05/11 02:50:29;;;;;;;10.90;9.80;;;18.30;53.30;;;;;;6145558;23;20140;-80
2021/05/11 02:52:55;;;;;;;11.35;10.25;;;18.30;53.20;;;;;;6145107;23;20191;-81
2021/05/11 02:55:22;;;;;;;11.23;10.02;;;18.30;53.90;;;;;;6120510;23;20183;-80
2021/05/11 02:57:48;;;;;;;11.25;10.05;;;18.30;53.20;;;;;;6170702;23;20128;-81
2021/05/11 03:00:16;;;;;;;10.90;9.77;;;18.30;53.20;;;;;;6145821;23;20132;-80
2021/05/11 03:02:43;;;;;;;11.60;10.45;;;18.30;53.30;;;;;;6096516;23;20514;-80
2021/05/11 03:05:11;;;;;;;11.13;9.95;;;18.30;53.40;;;;;;6145313;23;20155;-80
2021/05/11 03:07:36;;;;;;;10.80;9.70;;;18.30;53.30;;;;;;6144862;23;20139;-80
2021/05/11 03:10:04;;;;;;;10.68;9.60;;;18.30;53.90;;;;;;6096292;23;20146;-80
2021/05/11 03:12:32;;;;;;;11.32;10.23;;;18.20;53.40;;;;;;6120676;23;20167;-80
2021/05/11 03:15:02;;;;;;;11.40;10.27;;;18.20;53.30;;;;;;6119871;23;20139;-80
2021/05/11 03:17:29;;;;;;;11.20;10.10;;;18.20;53.40;;;;;;6144324;23;20140;-80
2021/05/11 03:19:54;;;;;;;10.95;9.85;;;18.20;53.40;;;;;;6169744;23;20163;-80
2021/05/11 03:22:20;;;;;;;11.45;10.25;;;18.20;53.40;;;;;;6143689;23;20167;-80
2021/05/11 03:24:46;;;;;;;10.85;9.75;;;18.20;53.40;;;;;;6095530;23;20144;-80
2021/05/11 03:27:13;;;;;;;11.52;10.32;;;18.20;53.40;;;;;;6119567;23;20131;-80
2021/05/11 03:29:39;;;;;;;11.38;10.18;;;18.30;53.50;;;;;;6143237;23;20140;-80
2021/05/11 03:32:05;;;;;;;11.52;10.43;;;18.20;53.30;;;;;;6117708;23;20190;-80
2021/05/11 03:34:31;;;;;;;10.48;9.48;;;18.20;53.30;;;;;;6123893;23;20567;-80
2021/05/11 03:36:57;;;;;;;11.10;9.73;;;18.20;53.40;;;;;;6173119;23;20156;-80
2021/05/11 03:39:22;;;;;;;11.20;10.10;;;18.30;53.40;;;;;;6172903;23;20521;-80
2021/05/11 03:41:54;;;;;;;12.05;9.98;;;18.30;53.40;;;;;;6147893;23;20618;-80
2021/05/11 03:44:26;;;;;;;10.60;9.50;;;18.30;53.40;;;;;;6149057;23;20123;-81
2021/05/11 03:46:54;;;;;;;10.73;9.63;;;18.30;53.40;;;;;;6148843;23;20131;-80
2021/05/11 03:49:19;;;;;;;11.10;10.00;;;18.20;53.40;;;;;;6171082;23;20127;-80
2021/05/11 03:51:46;;;;;;;10.77;9.68;;;18.20;53.50;;;;;;6172021;23;20560;-80
2021/05/11 03:54:15;;;;;;;11.25;10.05;;;18.20;53.50;;;;;;6146742;23;20141;-80
2021/05/11 03:56:41;;;;;;;11.02;9.88;;;18.20;53.60;;;;;;6171884;23;20131;-80
2021/05/11 03:59:08;;;;;;;10.95;9.85;;;18.20;53.50;;;;;;6147639;23;20139;-80
2021/05/11 04:01:34;;;;;;;10.45;9.35;;;18.20;53.50;;;;;;6171658;23;20167;-81
2021/05/11 04:04:00;;;;;;;11.70;10.48;;;18.20;53.50;;;;;;6146696;23;20150;-80
2021/05/11 04:06:26;;;;;;;11.40;10.20;;;18.20;53.50;;;;;;6147270;23;20126;-80
2021/05/11 04:09:09;;;;;;;10.50;9.50;;;18.20;53.50;;;;;;6146570;23;20139;-80
2021/05/11 04:16:55;;;;;;;10.93;9.52;;;18.20;53.60;;;;;;6155009;23;20161;-80
2021/05/11 04:19:21;;;;;;;11.18;10.07;;;18.20;53.50;;;;;;6122537;23;20151;-80
2021/05/11 04:21:50;;;;;;;10.77;9.68;;;18.20;53.50;;;;;;6171832;23;20181;-81
2021/05/11 04:24:15;;;;;;;10.55;9.45;;;18.20;53.50;;;;;;6171019;23;20131;-80
2021/05/11 04:26:43;;;;;;;10.13;9.13;;;18.20;53.50;;;;;;6145632;23;20154;-81
2021/05/11 04:29:09;;;;;;;11.15;10.05;;;18.20;53.40;;;;;;6171098;23;20131;-81
2021/05/11 04:31:37;;;;;;;10.82;9.73;;;18.20;53.40;;;;;;6169018;23;20217;-81
2021/05/11 04:34:03;;;;;;;11.25;10.15;;;18.20;53.40;;;;;;6145723;23;20131;-80
2021/05/11 04:36:32;;;;;;;10.55;9.45;;;18.20;53.40;;;;;;6169612;23;20185;-80
2021/05/11 04:38:58;;;;;;;10.57;9.23;;;18.30;53.40;;;;;;6169307;23;20589;-80
2021/05/11 04:41:25;;;;;;;10.43;9.43;;;18.20;53.30;;;;;;6195063;23;20167;-80
2021/05/11 04:43:50;;;;;;;11.20;9.75;;;18.30;53.30;;;;;;6195290;23;20134;-81
2021/05/11 04:48:48;;;;;;;10.07;9.10;;;18.30;53.20;;;;;;6145881;23;20467;-80
2021/05/11 04:51:14;;;;;;;10.73;9.55;;;18.30;53.30;;;;;;6145529;23;20146;-81
2021/05/11 04:53:43;;;;;;;11.00;9.77;;;18.30;53.40;;;;;;6170020;23;20645;-81
2021/05/11 04:56:12;;;;;;;10.93;9.07;;;18.30;53.40;;;;;;6144825;23;20159;-80
2021/05/11 04:58:39;;;;;;;11.48;9.52;;;18.30;53.30;;;;;;6143749;23;20434;-80
2021/05/11 05:01:04;;;;;;;9.93;8.93;;;18.30;53.30;;;;;;6146577;23;20167;-80
2021/05/11 05:03:35;;;;;;;9.80;8.80;;;18.30;53.20;;;;;;6166581;23;20141;-81
2021/05/11 05:06:09;;;;;;;10.52;9.38;;;18.30;53.20;;;;;;6119718;23;20147;-81
2021/05/11 05:08:35;;;;;;;10.73;9.73;;;18.30;53.10;;;;;;6196717;23;20142;-80
2021/05/11 05:11:02;;;;;;;9.93;8.90;;;18.30;53.20;;;;;;6171282;23;20158;-81
2021/05/11 05:13:31;;;;;;;10.18;9.18;;;18.30;53.20;;;;;;6144749;23;20170;-80
2021/05/11 05:15:57;;;;;;;9.50;8.50;;;18.40;53.20;;;;;;6168155;23;20162;-81
2021/05/11 05:18:23;;;;;;;10.00;9.00;;;18.40;53.00;;;;;;6119223;23;20170;-81
2021/05/11 05:20:51;;;;;;;10.50;8.98;;;18.40;53.00;;;;;;6141531;23;20155;-81
2021/05/11 05:23:19;;;;;;;9.45;8.55;;;18.40;53.10;;;;;;6142950;23;20158;-81
2021/05/11 05:25:58;;;;;;;9.25;8.23;;;18.40;53.10;;;;;;6146701;23;20147;-81
2021/05/11 05:28:38;;;;;;;9.80;8.82;;;18.40;52.90;;;;;;6165919;23;20198;-81
2021/05/11 05:31:04;;;;;;;10.80;9.70;;;18.40;52.80;;;;;;6140661;23;20247;-81
2021/05/11 05:33:37;;;;;;;10.20;9.10;;;18.50;53.00;;;;;;6164540;23;20233;-82
2021/05/11 05:36:04;;;;;;;9.93;8.98;;;18.50;52.90;;;;;;6138530;23;20154;-82
2021/05/11 05:38:31;;;;;;;9.25;8.35;;;18.50;52.80;;;;;;6164210;23;20162;-80
2021/05/11 05:41:12;;;;;;;10.15;9.15;;;18.50;52.80;;;;;;6141402;23;20123;-80
2021/05/11 05:43:41;;;;;;;9.98;9.05;;;18.50;52.80;;;;;;6142137;23;20494;-81
2021/05/11 05:46:06;;;;;;;9.27;8.38;;;18.60;52.70;;;;;;6166562;23;20166;-80
2021/05/11 05:48:32;;;;;;;10.30;9.32;;;18.50;52.70;;;;;;6167544;23;20587;-80
2021/05/11 05:51:03;;;;;;;9.32;8.38;;;18.50;52.90;;;;;;6147356;23;20155;-79
2021/05/11 05:53:55;;;;;;;10.30;9.20;;;18.50;53.00;;;;;;6172619;23;20187;-80
2021/05/11 05:56:22;;;;;;;9.30;8.38;;;18.60;53.10;;;;;;6140474;23;20142;-81
2021/05/11 05:58:48;;;;;;;9.95;8.95;;;18.60;53.10;;;;;;6142914;23;20135;-81
2021/05/11 06:01:15;;;;;;;9.70;8.70;;;18.50;53.10;;;;;;6140205;23;20171;-81
2021/05/11 06:03:51;;;;;;;10.73;9.63;;;18.50;53.10;;;;;;6193211;23;20131;-81
2021/05/11 06:06:19;;;;;;;9.75;8.85;;;18.50;53.10;;;;;;6140302;23;20239;-81
2021/05/11 06:08:47;;;;;;;9.93;8.93;;;18.50;53.20;;;;;;6139649;23;20206;-81
2021/05/11 06:13:55;;;;;;;10.60;8.80;;;18.50;53.20;;;;;;6165763;23;20197;-81
2021/05/11 06:19:05;;;;;;;9.40;8.50;;;18.60;53.00;;;;;;6168591;23;20182;-80
2021/05/11 06:21:32;;;;;;;9.60;8.68;;;18.60;53.00;;;;;;6169181;23;20162;-80
2021/05/11 06:23:58;;;;;;;9.35;8.45;;;18.60;52.90;;;;;;6141241;23;20158;-80
2021/05/11 06:26:23;;;;;;;9.35;8.45;;;18.60;52.80;;;;;;6165003;23;20448;-80
2021/05/11 06:28:49;;;;;;;9.43;8.23;;;18.60;52.90;;;;;;6163539;23;20515;-81
2021/05/11 06:31:15;;;;;;;9.60;8.60;;;18.60;52.80;;;;;;6137904;23;20197;-81
2021/05/11 06:33:41;;;;;;;8.60;7.78;;;18.70;52.80;;;;;;6189715;23;20147;-81
2021/05/11 06:36:07;;;;;;;9.38;8.38;;;18.60;52.80;;;;;;6162198;23;20135;-80
2021/05/11 06:38:33;;;;;;;10.18;8.82;;;18.70;52.80;;;;;;6111863;23;20150;-82
2021/05/11 06:41:00;;;;;;;9.52;8.52;;;18.70;52.70;;;;;;6161028;23;20163;-82
2021/05/11 06:43:28;;;;;;;9.40;8.50;;;18.60;52.80;;;;;;6161935;23;20132;-83
2021/05/11 06:54:10;;;;;;;10.05;8.77;;;18.70;52.60;;;;;;6193201;23;20213;-81
2021/05/11 06:56:39;;;;;;;9.73;8.73;;;18.80;52.60;;;;;;6165760;23;20159;-80
2021/05/11 06:59:14;;;;;;;9.05;8.15;;;18.80;52.60;;;;;;6163564;23;20197;-82
2021/05/11 07:01:49;;;;;;;9.52;8.63;;;18.70;52.60;;;;;;6139222;23;20180;-81
2021/05/11 07:04:15;;;;;;;8.77;7.93;;;18.80;52.60;;;;;;6165345;23;20154;-81
2021/05/11 07:06:41;;;;;;;9.27;8.38;;;18.80;52.70;;;;;;6164990;23;20151;-81
2021/05/11 07:09:10;;;;;;;9.68;8.70;;;18.80;52.60;;;;;;6164910;23;20138;-80
2021/05/11 07:14:04;;;;;;;9.70;8.77;;;18.80;52.60;;;;;;6165332;23;20189;-81
2021/05/11 07:16:31;;;;;;;9.20;8.30;;;18.80;52.60;;;;;;6190257;23;20139;-80
2021/05/11 07:19:06;;;;;;;10.00;8.45;;;18.70;52.60;;;;;;6165055;23;20135;-82
2021/05/11 07:21:33;;;;;;;9.68;8.70;;;18.80;52.60;;;;;;6189965;23;20221;-81
2021/05/11 07:24:03;;;;;;;9.40;8.40;;;18.80;52.60;;;;;;6188962;23;20135;-81
2021/05/11 07:26:30;;;;;;;9.98;8.98;;;18.80;52.70;;;;;;6191483;23;20163;-82
2021/05/11 07:31:53;;;;;;;9.02;8.10;;;18.80;52.90;;;;;;6054583;23;20197;-81
2021/05/11 07:34:20;;;;;;;9.20;8.30;;;18.80;52.70;;;;;;6048450;23;20194;-81
2021/05/11 07:36:48;;;;;;;8.85;7.95;;;18.80;52.80;;;;;;6049231;23;20157;-81
2021/05/11 07:39:14;;;;;;;9.30;8.40;;;18.90;52.60;;;;;;6072606;23;20609;-81
2021/05/11 07:41:46;;;;;;;10.00;8.52;;;18.90;52.60;;;;;;6071762;23;20665;-81
2021/05/11 07:44:16;;;;;;;9.15;8.25;;;18.80;52.70;;;;;;6048992;23;20197;-81
2021/05/11 07:47:11;;;;;;;8.82;7.93;;;18.80;52.70;;;;;;6071514;23;20138;-82
2021/05/11 08:16:56;;;;;;;8.75;7.85;;;18.90;52.70;;;;;;6076067;23;20721;-82
2021/05/11 08:30:00;;;;;;;9.88;7.85;;;19.00;52.60;;;;;;6051885;23;20301;-80
2021/05/11 08:32:26;;;;;;;8.57;7.68;;;19.00;52.60;;;;;;6052636;23;20210;-80
2021/05/11 08:34:51;;;;;;;8.25;7.50;;;19.00;52.70;;;;;;6074556;23;20180;-80
2021/05/11 08:37:20;;;;;;;9.00;7.93;;;19.00;52.80;;;;;;6073322;23;20160;-81
2021/05/11 08:39:46;;;;;;;9.27;7.85;;;19.00;52.60;;;;;;6046178;23;20141;-82
2021/05/11 08:42:13;;;;;;;8.57;7.78;;;19.00;52.70;;;;;;6106890;23;20182;-81
2021/05/11 08:44:39;;;;;;;8.80;7.90;;;19.00;52.70;;;;;;6167407;23;20135;-80
2021/05/11 08:47:05;;;;;;;8.65;7.75;;;19.00;52.70;;;;;;6165569;23;20127;-82
2021/05/11 08:49:34;;;;;;;8.15;7.35;;;19.00;53.00;;;;;;6190620;23;20218;-81
2021/05/11 09:15:03;;;;;;;10.02;7.75;;;19.00;53.20;;;;;;6168513;23;20476;-82
2021/05/11 09:28:53;;;;;;;8.15;7.40;;;19.10;52.80;;;;;;6084919;23;20153;-82
2021/05/11 10:46:30;;;;;;;7.95;7.15;;;19.10;53.40;;;;;;6163372;23;20520;-79
2021/05/11 10:48:33;;;;;;;8.48;7.43;;;19.10;53.60;;;;;;6189939;23;20159;-78
2021/05/11 10:51:00;;;;;;;7.63;6.88;;;19.10;53.60;;;;;;6187379;23;20210;-81
2021/05/11 10:53:45;;;;;;;8.23;6.78;;;19.10;53.40;;;;;;6161073;23;20181;-81
2021/05/11 10:59:19;;;;;;;8.95;7.03;;;19.10;53.50;;;;;;6187321;23;20138;-80
2021/05/11 11:01:47;;;;;;;7.68;6.88;;;19.10;54.00;;;;;;6187096;23;20495;-80
2021/05/11 11:04:22;;;;;;;8.32;6.80;;;19.10;54.20;;;;;;6139416;23;20609;-79
2021/05/11 11:07:15;;;;;;;8.45;7.25;;;19.10;53.40;;;;;;6172139;23;20135;-78
2021/05/11 11:09:58;;;;;;;8.43;7.40;;;19.10;53.50;;;;;;6150348;23;20147;-79
2021/05/11 11:12:36;;;;;;;7.85;6.93;;;19.20;53.40;;;;;;6200768;23;20143;-81
2021/05/11 11:15:41;;;;;;;8.00;7.20;;;19.10;53.30;;;;;;6170846;23;20135;-79
2021/05/11 11:18:27;;;;;;;8.15;7.28;;;19.10;53.40;;;;;;6196609;23;20138;-80
2021/05/11 11:23:48;;;;;;;8.38;6.72;;;19.10;53.60;;;;;;6171595;23;20222;-78
2021/05/11 11:26:43;;;;;;;9.25;7.07;;;19.20;53.50;;;;;;6172263;23;20138;-78
2021/05/11 11:29:29;;;;;;;8.50;7.30;;;19.10;53.30;;;;;;6171263;23;20146;-79
2021/05/11 11:32:20;;;;;;;7.55;6.78;;;19.10;53.40;;;;;;6147479;23;20221;-80
2021/05/11 11:35:12;;;;;;;7.60;6.85;;;19.10;53.50;;;;;;6173449;23;20160;-80
2021/05/11 11:37:39;;;;;;;8.13;7.20;;;19.10;54.30;;;;;;6171407;23;20197;-79
2021/05/11 11:40:20;;;;;;;7.68;6.97;;;19.10;53.40;;;;;;6172757;23;20217;-79
2021/05/11 11:42:47;;;;;;;8.13;7.32;;;19.10;53.60;;;;;;6146153;23;20167;-81
2021/05/11 11:45:25;;;;;;;7.50;6.80;;;19.10;53.40;;;;;;6148255;23;20150;-79
2021/05/11 11:47:56;;;;;;;8.13;7.32;;;19.10;53.50;;;;;;6197823;23;20126;-80
2021/05/11 11:50:23;;;;;;;7.57;6.88;;;19.10;53.50;;;;;;6196546;23;20143;-80
2021/05/11 11:55:58;;;;;;;7.70;6.90;;;19.10;53.70;;;;;;6173860;23;20131;-79
2021/05/11 11:58:31;;;;;;;7.75;6.72;;;19.10;53.50;;;;;;6153710;23;20146;-79
2021/05/11 12:01:22;;;;;;;7.93;7.07;;;19.20;53.60;;;;;;6173677;23;20126;-78
2021/05/11 12:03:55;;;;;;;7.40;6.70;;;19.20;53.50;;;;;;6173358;23;20564;-79
2021/05/11 12:06:30;;;;;;;7.78;7.07;;;19.20;53.40;;;;;;6173015;23;20131;-80
2021/05/11 12:08:57;;;;;;;7.88;6.65;;;19.20;53.50;;;;;;6170975;23;20127;-80
2021/05/11 12:11:23;;;;;;;7.93;7.22;;;19.20;53.50;;;;;;6173043;23;20138;-79
2021/05/11 12:13:51;;;;;;;9.43;7.20;;;19.20;53.40;;;;;;6172673;23;20143;-79
2021/05/11 12:16:27;;;;;;;7.65;6.95;;;19.20;53.70;;;;;;6148751;23;20149;-79
2021/05/11 12:19:26;;;;;;;8.20;7.40;;;19.20;53.50;;;;;;6174367;23;20130;-81
2021/05/11 12:21:57;;;;;;;7.55;6.85;;;19.20;53.60;;;;;;6171258;23;20166;-79
2021/05/11 12:24:36;;;;;;;7.57;6.85;;;19.20;53.70;;;;;;6149438;23;20160;-80
2021/05/11 12:27:33;;;;;;;7.43;6.75;;;19.20;53.60;;;;;;6200597;23;20210;-79
2021/05/11 12:30:14;;;;;;;8.10;6.90;;;19.20;53.50;;;;;;6173757;23;20661;-80
2021/05/11 12:32:42;;;;;;;7.63;6.80;;;19.20;53.50;;;;;;6147926;23;20194;-79
2021/05/11 12:35:14;;;;;;;8.02;7.22;;;19.20;53.70;;;;;;6172942;23;20151;-79
2021/05/11 12:37:51;;;;;;;7.57;6.78;;;19.30;53.40;;;;;;6172702;23;20644;-82
2021/05/11 12:40:29;;;;;;;8.02;6.88;;;19.20;53.40;;;;;;6172314;23;20131;-80
2021/05/11 12:43:01;;;;;;;8.75;7.65;;;19.20;53.50;;;;;;6174614;23;20174;-80
2021/05/11 12:45:31;;;;;;;7.82;7.03;;;19.20;53.50;;;;;;6149211;23;20149;-80
2021/05/11 12:48:04;;;;;;;8.02;7.05;;;19.20;53.60;;;;;;6149679;23;20134;-79
2021/05/11 12:50:42;;;;;;;7.88;7.07;;;19.20;53.70;;;;;;6124318;23;20165;-80
2021/05/11 12:59:11;;;;;;;7.85;7.05;;;19.20;53.60;;;;;;6087266;23;20152;-79
2021/05/11 13:15:59;;;;;;;8.20;7.40;;;19.30;53.60;;;;;;6083469;23;20159;-80
2021/05/11 13:21:34;;;;;;;7.43;6.72;;;19.30;53.60;;;;;;6083812;23;20184;-77
2021/05/11 13:34:56;;;;;;;8.57;6.97;;;19.30;53.40;;;;;;5986205;23;20222;-80
2021/05/11 13:37:31;;;;;;;7.20;6.50;;;19.40;53.60;;;;;;6047281;23;20150;-84
2021/05/11 13:39:58;;;;;;;7.15;6.40;;;19.40;53.50;;;;;;6024186;23;20161;-81
2021/05/11 13:42:27;;;;;;;7.35;6.57;;;19.40;53.50;;;;;;6048607;23;20166;-80
2021/05/11 13:44:54;;;;;;;7.70;6.90;;;19.40;53.50;;;;;;6049275;23;20150;-81
2021/05/11 13:47:21;;;;;;;7.50;6.80;;;19.40;53.50;;;;;;6049641;23;20154;-82
2021/05/11 13:49:50;;;;;;;7.82;7.03;;;19.40;53.50;;;;;;6072326;23;20162;-82
2021/05/11 13:52:16;;;;;;;7.70;6.88;;;19.40;53.50;;;;;;6025539;23;20233;-81
2021/05/11 13:54:56;;;;;;;7.32;6.63;;;19.40;53.60;;;;;;6049318;23;20149;-80
2021/05/11 13:57:32;;;;;;;7.88;7.07;;;19.40;53.70;;;;;;6048698;23;20186;-79
2021/05/11 14:05:11;;;;;;;7.95;6.43;;;19.40;53.50;;;;;;6051553;23;20142;-80
2021/05/11 14:07:39;;;;;;;7.68;6.95;;;19.40;53.50;;;;;;6100430;23;20492;-80
2021/05/11 14:10:08;;;;;;;7.10;6.40;;;19.40;53.50;;;;;;6172523;23;20150;-80
2021/05/11 14:12:35;;;;;;;7.60;6.80;;;19.40;53.60;;;;;;6147280;23;20150;-81
2021/05/11 14:15:11;;;;;;;7.57;6.88;;;19.40;53.50;;;;;;6199044;23;20154;-80
2021/05/11 14:17:37;;;;;;;7.75;7.05;;;19.40;53.60;;;;;;6147070;23;20142;-81
2021/05/11 14:20:06;;;;;;;6.78;6.10;;;19.40;53.70;;;;;;6172193;23;20132;-80
2021/05/11 14:22:33;;;;;;;6.93;6.32;;;19.40;53.70;;;;;;6170631;23;20170;-79
2021/05/11 14:24:59;;;;;;;7.70;7.00;;;19.40;53.70;;;;;;6195660;23;20158;-79
2021/05/11 14:27:28;;;;;;;7.82;7.07;;;19.40;53.80;;;;;;6170803;23;20127;-79
2021/05/11 14:29:55;;;;;;;7.90;7.15;;;19.40;53.80;;;;;;6172074;23;20143;-79
2021/05/11 14:32:20;;;;;;;8.27;7.13;;;19.50;53.70;;;;;;6123324;23;20186;-80
2021/05/11 14:34:47;;;;;;;7.40;6.70;;;19.50;53.70;;;;;;6171683;23;20158;-78
2021/05/11 14:37:16;;;;;;;7.78;7.07;;;19.50;53.70;;;;;;6172348;23;20133;-80
2021/05/11 14:39:41;;;;;;;8.20;7.38;;;19.40;53.70;;;;;;6196681;23;20138;-79
2021/05/11 14:42:08;;;;;;;7.50;6.80;;;19.50;53.80;;;;;;6144504;23;20347;-80
2021/05/11 14:44:38;;;;;;;7.20;6.60;;;19.50;53.80;;;;;;6195463;23;20131;-81
2021/05/11 14:47:05;;;;;;;7.70;7.00;;;19.40;53.80;;;;;;6143274;23;20147;-79
2021/05/11 14:49:39;;;;;;;7.88;7.18;;;19.50;53.80;;;;;;6143283;23;20201;-79
2021/05/11 14:52:11;;;;;;;8.10;7.30;;;19.50;53.70;;;;;;6166572;23;20138;-80
2021/05/11 14:54:46;;;;;;;8.82;7.70;;;19.50;53.70;;;;;;6144100;23;20151;-81
2021/05/11 14:57:21;;;;;;;7.93;7.22;;;19.40;53.80;;;;;;6196063;23;20194;-81
2021/05/11 14:59:49;;;;;;;8.25;7.45;;;19.40;53.90;;;;;;6197219;23;20130;-79
2021/05/11 15:02:16;;;;;;;8.18;7.38;;;19.50;53.90;;;;;;6173705;23;20174;-80
2021/05/11 15:04:44;;;;;;;8.00;7.30;;;19.50;53.70;;;;;;6172233;23;20174;-80
2021/05/11 15:07:10;;;;;;;8.50;7.70;;;19.50;53.70;;;;;;6123559;23;20162;-81
2021/05/11 15:09:36;;;;;;;7.60;6.90;;;19.50;53.70;;;;;;6171403;23;20567;-82
2021/05/11 15:12:02;;;;;;;7.55;6.85;;;19.50;53.70;;;;;;6124429;23;20181;-79
2021/05/11 15:14:28;;;;;;;8.15;7.40;;;19.50;53.70;;;;;;6147145;23;20459;-81
2021/05/11 15:19:56;;;;;;;8.70;7.20;;;19.50;53.60;;;;;;6090925;23;20160;-79
2021/05/11 15:22:23;;;;;;;8.20;7.40;;;19.60;53.60;;;;;;6084422;23;20745;-82
2021/05/11 15:25:00;;;;;;;7.40;6.70;;;19.60;53.60;;;;;;6107941;23;20137;-81
2021/05/11 15:27:32;;;;;;;8.05;7.25;;;19.50;53.60;;;;;;6103814;23;20137;-79
2021/05/11 15:30:08;;;;;;;8.00;7.20;;;19.50;53.70;;;;;;6107702;23;20153;-78
2021/05/11 15:32:54;;;;;;;8.05;7.32;;;19.50;53.70;;;;;;6105912;23;20204;-79
2021/05/11 15:35:27;;;;;;;8.18;7.38;;;19.50;53.70;;;;;;6107851;23;20212;-78
2021/05/11 15:37:56;;;;;;;7.85;7.13;;;19.50;53.70;;;;;;6107614;23;20153;-80
2021/05/11 15:40:23;;;;;;;8.18;7.47;;;19.50;53.70;;;;;;6107991;23;20589;-79
2021/05/11 15:42:51;;;;;;;7.95;7.25;;;19.50;53.80;;;;;;6108637;23;20184;-79
2021/05/11 15:45:26;;;;;;;8.63;7.82;;;19.50;53.90;;;;;;6084488;23;20169;-79
2021/05/11 15:47:56;;;;;;;8.25;7.45;;;19.50;53.80;;;;;;6108174;23;20145;-79
2021/05/11 15:50:26;;;;;;;7.68;6.97;;;19.50;53.90;;;;;;6108226;23;20169;-79
2021/05/11 15:52:55;;;;;;;8.50;7.70;;;19.40;54.00;;;;;;6080713;23;20148;-82
2021/05/11 15:55:29;;;;;;;7.82;7.13;;;19.40;54.10;;;;;;6103187;23;20220;-81
2021/05/11 15:57:55;;;;;;;7.82;7.07;;;19.40;54.10;;;;;;6193955;23;20130;-81
2021/05/11 16:00:25;;;;;;;9.10;8.00;;;19.40;54.20;;;;;;6122992;23;20149;-79
2021/05/11 16:02:50;;;;;;;7.88;7.10;;;19.40;54.30;;;;;;6148517;23;20174;-79
2021/05/11 16:05:26;;;;;;;8.05;7.25;;;19.40;54.30;;;;;;6174441;23;20166;-80
2021/05/11 16:07:53;;;;;;;7.78;6.97;;;19.40;54.50;;;;;;6173684;23;20146;-81
2021/05/11 16:10:20;;;;;;;7.97;6.88;;;19.40;54.50;;;;;;6172355;23;20143;-79
2021/05/11 16:12:48;;;;;;;7.47;6.78;;;19.50;54.40;;;;;;6124202;23;20139;-80
2021/05/11 16:15:18;;;;;;;8.10;7.25;;;19.50;54.40;;;;;;6149902;23;20142;-79
2021/05/11 16:17:46;;;;;;;8.00;7.20;;;19.50;54.40;;;;;;6125070;23;20222;-79
2021/05/11 16:20:12;;;;;;;8.25;7.53;;;19.50;54.30;;;;;;6148402;23;20147;-80
2021/05/11 16:22:40;;;;;;;10.25;7.22;;;19.50;54.30;;;;;;6173047;23;20178;-79
2021/05/11 16:25:06;;;;;;;8.00;7.20;;;19.50;54.20;;;;;;6199017;23;20127;-78
2021/05/11 16:27:33;;;;;;;8.40;7.18;;;19.50;54.50;;;;;;6149281;23;20179;-79
2021/05/11 16:30:03;;;;;;;8.35;7.55;;;19.50;54.70;;;;;;6172712;23;20130;-80
2021/05/11 16:32:30;;;;;;;8.27;7.47;;;19.40;54.60;;;;;;6172996;23;20198;-80
2021/05/11 16:34:57;;;;;;;8.52;7.72;;;19.40;54.70;;;;;;6148125;23;20135;-79
2021/05/11 16:37:26;;;;;;;8.25;7.45;;;19.50;54.70;;;;;;6197808;23;20130;-80
2021/05/11 16:39:53;;;;;;;8.45;7.38;;;19.40;55.00;;;;;;6146080;23;20204;-80
2021/05/11 16:42:22;;;;;;;7.75;6.95;;;19.40;54.80;;;;;;6142745;23;20170;-82
2021/05/11 16:44:50;;;;;;;8.30;7.18;;;19.50;54.70;;;;;;6166286;23;20151;-79
2021/05/11 16:47:24;;;;;;;9.18;6.90;;;19.50;54.70;;;;;;6142636;23;20174;-81
2021/05/11 16:49:51;;;;;;;7.38;6.78;;;19.50;54.60;;;;;;6163809;23;20157;-80
2021/05/11 16:52:18;;;;;;;8.35;7.55;;;19.50;54.50;;;;;;6167548;23;20135;-82
2021/05/11 16:54:44;;;;;;;7.75;6.95;;;19.60;54.50;;;;;;6194680;23;20138;-81
2021/05/11 16:57:19;;;;;;;8.27;7.47;;;19.50;54.60;;;;;;6145908;23;20146;-80
2021/05/11 16:59:46;;;;;;;7.40;6.75;;;19.50;54.70;;;;;;6170414;23;20283;-79
2021/05/11 17:02:14;;;;;;;8.73;7.93;;;19.50;54.80;;;;;;6171053;23;20277;-80
2021/05/11 17:04:40;;;;;;;9.60;7.70;;;19.50;54.70;;;;;;6171121;23;20130;-81
2021/05/11 17:07:08;;;;;;;9.20;8.40;;;19.50;54.80;;;;;;6146410;23;20478;-79
2021/05/11 17:09:35;;;;;;;9.60;8.63;;;19.50;54.70;;;;;;6171230;23;20142;-80
2021/05/11 17:12:01;;;;;;;7.97;7.28;;;19.50;54.80;;;;;;6166720;23;20170;-80
2021/05/11 17:14:37;;;;;;;10.00;8.25;;;19.50;54.90;;;;;;6167316;23;20205;-81
2021/05/11 17:17:04;;;;;;;8.80;8.00;;;19.50;54.90;;;;;;6200560;23;20180;-79
2021/05/11 17:19:31;;;;;;;8.55;7.75;;;19.50;54.80;;;;;;6199932;23;20132;-79
2021/05/11 17:22:05;;;;;;;9.00;8.20;;;19.50;55.00;;;;;;6143289;23;20518;-80
2021/05/11 17:24:32;;;;;;;8.23;7.43;;;19.50;55.00;;;;;;6173364;23;20131;-79
2021/05/11 17:26:59;;;;;;;7.88;7.18;;;19.50;54.90;;;;;;6171941;23;20150;-81
2021/05/11 17:29:34;;;;;;;8.45;7.53;;;19.50;54.80;;;;;;6172899;23;20131;-81
2021/05/11 17:32:00;;;;;;;8.70;7.82;;;19.50;54.80;;;;;;6171510;23;20196;-81